Time;durP1;ratioP1;P1;durP2;ratioP2;P2;SDS_P1;SDS_P2;PMS_P1;PMS_P2;Temp;Humidity;BMP_temperature;BMP_pressure;BME280_temperature;BME280_humidity;BME280_pressure;Samples;Min_cycle;Max_cycle;Signal;HPM_P1;HPM_P2
2023/10/23 00:01:39;;;;;;;;;;;12.00;99.90;;;;;;7326334;19;109125;-66
2023/10/23 00:04:07;;;;;;;;;;;12.00;99.90;;;;;;7332894;19;109040;-66
2023/10/23 00:06:35;;;;;;;;;;;12.00;99.90;;;;;;7331680;19;111477;-67
2023/10/23 00:09:02;;;;;;;;;;;12.00;99.90;;;;;;7330886;19;109127;-68
2023/10/23 00:11:30;;;;;;;;;;;11.90;99.90;;;;;;7327762;19;111226;-67
2023/10/23 00:13:57;;;;;;;;;;;12.00;99.90;;;;;;7330237;19;109217;-67
2023/10/23 00:16:24;;;;;;;;;;;11.90;99.90;;;;;;7331306;19;109215;-66
2023/10/23 00:18:52;;;;;;;;;;;11.90;99.90;;;;;;7324356;19;108989;-67
2023/10/23 00:21:19;;;;;;;;;;;11.90;99.90;;;;;;7335283;19;110139;-67
2023/10/23 00:23:46;;;;;;;;;;;11.80;99.90;;;;;;7331372;19;109175;-69
2023/10/23 00:26:13;;;;;;;;;;;11.70;99.90;;;;;;7333677;19;108968;-66
2023/10/23 00:28:41;;;;;;;;;;;11.80;99.90;;;;;;7331235;19;108601;-67
2023/10/23 00:31:08;;;;;;;;;;;11.70;99.90;;;;;;7330844;19;109592;-67
2023/10/23 00:33:35;;;;;;;;;;;11.70;99.90;;;;;;7335079;19;110533;-67
2023/10/23 00:36:02;;;;;;;;;;;11.70;99.90;;;;;;7336412;19;109572;-67
2023/10/23 00:38:30;;;;;;;;;;;11.60;99.90;;;;;;7337856;19;108903;-67
2023/10/23 00:40:57;;;;;;;;;;;11.60;99.90;;;;;;7338506;19;109091;-66
2023/10/23 00:43:24;;;;;;;;;;;11.60;99.90;;;;;;7343035;19;110460;-66
2023/10/23 00:45:58;;;;;;;;;;;11.60;99.90;;;;;;7336849;19;109803;-68
2023/10/23 00:48:26;;;;;;;;;;;11.60;99.90;;;;;;7340128;19;108833;-66
2023/10/23 00:50:56;;;;;;;;;;;11.50;99.90;;;;;;7339791;19;109282;-66
2023/10/23 00:53:25;;;;;;;;;;;11.50;99.90;;;;;;7334770;19;109365;-66
2023/10/23 00:55:53;;;;;;;;;;;11.50;99.90;;;;;;7341672;19;108589;-68
2023/10/23 00:58:24;;;;;;;;;;;11.50;99.90;;;;;;7332871;19;109380;-74
2023/10/23 01:00:53;;;;;;;;;;;11.50;99.90;;;;;;7339256;19;111428;-72
2023/10/23 01:03:21;;;;;;;;;;;11.40;99.90;;;;;;7341534;19;113448;-68
2023/10/23 01:05:48;;;;;;;;;;;11.40;99.90;;;;;;7335455;19;110981;-73
2023/10/23 01:08:15;;;;;;;;;;;11.40;99.90;;;;;;7334438;19;108953;-73
2023/10/23 01:10:42;;;;;;;;;;;11.30;99.90;;;;;;7335275;19;109437;-69
2023/10/23 01:13:09;;;;;;;;;;;11.40;99.90;;;;;;7333790;19;109657;-68
2023/10/23 01:15:37;;;;;;;;;;;11.30;99.90;;;;;;7336624;19;110488;-66
2023/10/23 01:18:04;;;;;;;;;;;11.30;99.90;;;;;;7336710;19;110592;-68
2023/10/23 01:20:32;;;;;;;;;;;11.30;99.90;;;;;;7339968;19;109047;-66
2023/10/23 01:23:00;;;;;;;;;;;11.30;99.90;;;;;;7336319;19;109914;-66
2023/10/23 01:25:27;;;;;;;;;;;11.30;99.90;;;;;;7337504;19;109112;-66
2023/10/23 01:27:54;;;;;;;;;;;11.20;99.90;;;;;;7335917;19;110892;-66
2023/10/23 01:30:22;;;;;;;;;;;11.20;99.90;;;;;;7338635;19;109402;-66
2023/10/23 01:32:49;;;;;;;;;;;11.10;99.90;;;;;;7330024;19;110394;-66
2023/10/23 01:35:16;;;;;;;;;;;11.10;99.90;;;;;;7335831;19;109298;-66
2023/10/23 01:37:45;;;;;;;;;;;11.00;99.90;;;;;;7333970;19;109658;-66
2023/10/23 01:40:12;;;;;;;;;;;11.00;99.90;;;;;;7334874;19;109448;-67
2023/10/23 01:42:42;;;;;;;;;;;11.00;99.90;;;;;;7333018;19;108590;-67
2023/10/23 01:45:10;;;;;;;;;;;11.00;99.90;;;;;;7336847;19;109181;-66
2023/10/23 01:47:37;;;;;;;;;;;11.00;99.90;;;;;;7339824;19;110243;-67
2023/10/23 01:50:05;;;;;;;;;;;10.90;99.90;;;;;;7339241;19;109963;-66
2023/10/23 01:52:32;;;;;;;;;;;10.80;99.90;;;;;;7336254;19;109644;-66
2023/10/23 01:54:59;;;;;;;;;;;10.80;99.90;;;;;;7334701;19;108559;-67
2023/10/23 01:57:27;;;;;;;;;;;10.70;99.90;;;;;;7335231;19;109085;-66
2023/10/23 01:59:55;;;;;;;;;;;10.70;99.90;;;;;;7336481;19;110549;-66
2023/10/23 02:02:22;;;;;;;;;;;10.70;99.90;;;;;;7331355;19;109984;-66
2023/10/23 02:04:49;;;;;;;;;;;10.60;99.90;;;;;;7339142;19;110351;-66
2023/10/23 02:07:16;;;;;;;;;;;10.60;99.90;;;;;;7333362;19;111794;-66
2023/10/23 02:09:43;;;;;;;;;;;10.50;99.90;;;;;;7341755;19;108612;-66
2023/10/23 02:12:10;;;;;;;;;;;10.50;99.90;;;;;;7335209;19;112833;-66
2023/10/23 02:14:37;;;;;;;;;;;10.50;99.90;;;;;;7332570;19;108437;-67
2023/10/23 02:17:05;;;;;;;;;;;10.50;99.90;;;;;;7333369;19;110278;-66
2023/10/23 02:19:32;;;;;;;;;;;10.50;99.90;;;;;;7337050;19;109429;-66
2023/10/23 02:21:59;;;;;;;;;;;10.50;99.90;;;;;;7335529;19;110073;-72
2023/10/23 02:24:26;;;;;;;;;;;10.50;99.90;;;;;;7336035;19;110420;-76
2023/10/23 02:26:54;;;;;;;;;;;10.40;99.90;;;;;;7335010;19;110118;-70
2023/10/23 02:29:21;;;;;;;;;;;10.40;99.90;;;;;;7336423;19;109862;-73
2023/10/23 02:31:49;;;;;;;;;;;10.40;99.90;;;;;;7339567;19;110979;-71
2023/10/23 02:34:16;;;;;;;;;;;10.30;99.90;;;;;;7333978;19;109643;-66
2023/10/23 02:36:43;;;;;;;;;;;10.30;99.90;;;;;;7335298;19;109048;-69
2023/10/23 02:41:53;;;;;;;;;;;10.20;99.90;;;;;;7333712;19;110435;-67
2023/10/23 02:44:20;;;;;;;;;;;10.20;99.90;;;;;;7334000;19;108858;-66
2023/10/23 02:46:47;;;;;;;;;;;10.20;99.90;;;;;;7330538;19;111751;-68
2023/10/23 02:49:18;;;;;;;;;;;10.10;99.90;;;;;;7332801;19;108446;-66
2023/10/23 02:51:46;;;;;;;;;;;10.10;99.90;;;;;;7333512;19;110313;-66
2023/10/23 02:54:13;;;;;;;;;;;10.10;99.90;;;;;;7338579;19;109359;-66
2023/10/23 02:56:40;;;;;;;;;;;10.10;99.90;;;;;;7330093;19;109115;-66
2023/10/23 02:59:08;;;;;;;;;;;10.00;99.90;;;;;;7334589;19;110750;-66
2023/10/23 03:01:35;;;;;;;;;;;10.00;99.90;;;;;;7330679;19;109158;-66
2023/10/23 03:04:02;;;;;;;;;;;9.90;99.90;;;;;;7327709;19;109512;-66
2023/10/23 03:06:29;;;;;;;;;;;9.90;99.90;;;;;;7331716;19;112565;-66
2023/10/23 03:08:57;;;;;;;;;;;9.90;99.90;;;;;;7335457;19;108978;-66
2023/10/23 03:11:24;;;;;;;;;;;9.90;99.90;;;;;;7334497;19;108523;-66
2023/10/23 03:13:51;;;;;;;;;;;9.90;99.90;;;;;;7338854;19;110154;-66
2023/10/23 03:16:18;;;;;;;;;;;9.90;99.90;;;;;;7329017;19;111277;-67
2023/10/23 03:18:46;;;;;;;;;;;9.90;99.90;;;;;;7332480;19;110445;-66
2023/10/23 03:21:13;;;;;;;;;;;9.90;99.90;;;;;;7330805;19;109883;-66
2023/10/23 03:23:40;;;;;;;;;;;9.80;99.90;;;;;;7331049;19;110152;-66
2023/10/23 03:26:07;;;;;;;;;;;9.80;99.90;;;;;;7332718;19;109414;-66
2023/10/23 03:28:34;;;;;;;;;;;9.80;99.90;;;;;;7332508;19;111915;-66
2023/10/23 03:31:03;;;;;;;;;;;9.80;99.90;;;;;;7331431;19;109582;-66
2023/10/23 03:33:30;;;;;;;;;;;9.80;99.90;;;;;;7332446;19;109627;-66
2023/10/23 03:35:57;;;;;;;;;;;9.80;99.90;;;;;;7336800;19;109690;-66
2023/10/23 03:38:24;;;;;;;;;;;9.70;99.90;;;;;;7334306;19;109070;-66
2023/10/23 03:40:58;;;;;;;;;;;9.70;99.90;;;;;;7332983;19;111613;-66
2023/10/23 03:43:26;;;;;;;;;;;9.70;99.90;;;;;;7334980;19;113796;-67
2023/10/23 03:45:53;;;;;;;;;;;9.70;99.90;;;;;;7331536;19;109511;-66
2023/10/23 03:48:20;;;;;;;;;;;9.70;99.90;;;;;;7331166;19;108577;-66
2023/10/23 03:50:47;;;;;;;;;;;9.70;99.90;;;;;;7331752;19;109048;-67
2023/10/23 03:53:15;;;;;;;;;;;9.70;99.90;;;;;;7330441;19;109909;-67
2023/10/23 03:55:42;;;;;;;;;;;9.70;99.90;;;;;;7329579;19;109267;-67
2023/10/23 03:58:09;;;;;;;;;;;9.70;99.90;;;;;;7338137;19;109340;-66
2023/10/23 04:00:36;;;;;;;;;;;9.70;99.90;;;;;;7328515;19;110328;-66
2023/10/23 04:03:03;;;;;;;;;;;9.60;99.90;;;;;;7331480;19;108906;-67
2023/10/23 04:05:30;;;;;;;;;;;9.60;99.90;;;;;;7330253;19;109619;-66
2023/10/23 04:07:58;;;;;;;;;;;9.60;99.90;;;;;;7330573;19;108781;-66
2023/10/23 04:10:25;;;;;;;;;;;9.60;99.90;;;;;;7330744;19;109469;-66
2023/10/23 04:12:52;;;;;;;;;;;9.60;99.90;;;;;;7326883;19;110101;-67
2023/10/23 04:15:19;;;;;;;;;;;9.60;99.90;;;;;;7330100;19;108831;-67
2023/10/23 04:17:47;;;;;;;;;;;9.60;99.90;;;;;;7323985;19;109175;-66
2023/10/23 04:20:15;;;;;;;;;;;9.60;99.90;;;;;;7336662;19;110304;-66
2023/10/23 04:22:42;;;;;;;;;;;9.50;99.90;;;;;;7331560;19;108696;-66
2023/10/23 04:25:10;;;;;;;;;;;9.50;99.90;;;;;;7331222;19;110627;-66
2023/10/23 04:27:37;;;;;;;;;;;9.50;99.90;;;;;;7327395;19;108739;-66
2023/10/23 04:30:05;;;;;;;;;;;9.50;99.90;;;;;;7331197;19;110950;-66
2023/10/23 04:32:33;;;;;;;;;;;9.50;99.90;;;;;;7326614;19;112142;-66
2023/10/23 04:35:00;;;;;;;;;;;9.40;99.90;;;;;;7325288;19;111924;-67
2023/10/23 04:37:27;;;;;;;;;;;9.50;99.90;;;;;;7328516;19;109518;-66
2023/10/23 04:39:55;;;;;;;;;;;9.50;99.90;;;;;;7327496;19;110197;-66
2023/10/23 04:42:22;;;;;;;;;;;9.40;99.90;;;;;;7335997;19;110650;-66
2023/10/23 04:44:49;;;;;;;;;;;9.40;99.90;;;;;;7328755;19;110594;-66
2023/10/23 04:47:16;;;;;;;;;;;9.30;99.90;;;;;;7331662;19;109040;-66
2023/10/23 04:49:46;;;;;;;;;;;9.30;99.90;;;;;;7329032;19;108598;-66
2023/10/23 04:52:13;;;;;;;;;;;9.30;99.90;;;;;;7330649;19;109899;-66
2023/10/23 04:54:40;;;;;;;;;;;9.20;99.90;;;;;;7329845;19;108735;-66
2023/10/23 04:57:08;;;;;;;;;;;9.20;99.90;;;;;;7325617;19;109375;-67
2023/10/23 04:59:35;;;;;;;;;;;9.20;99.90;;;;;;7331490;19;110347;-67
2023/10/23 05:02:03;;;;;;;;;;;9.20;99.90;;;;;;7326611;19;109854;-66
2023/10/23 05:04:30;;;;;;;;;;;9.20;99.90;;;;;;7337542;19;109065;-67
2023/10/23 05:06:58;;;;;;;;;;;9.20;99.90;;;;;;7328266;19;110055;-67
2023/10/23 05:09:26;;;;;;;;;;;9.20;99.90;;;;;;7330546;19;112594;-67
2023/10/23 05:11:54;;;;;;;;;;;9.20;99.90;;;;;;7325596;19;110775;-67
2023/10/23 05:14:21;;;;;;;;;;;9.10;99.90;;;;;;7329580;19;110983;-67
2023/10/23 05:16:48;;;;;;;;;;;9.10;99.90;;;;;;7330151;19;109107;-67
2023/10/23 05:19:15;;;;;;;;;;;9.10;99.90;;;;;;7330242;19;110272;-67
2023/10/23 05:21:43;;;;;;;;;;;9.10;99.90;;;;;;7337815;19;109859;-67
2023/10/23 05:24:10;;;;;;;;;;;9.10;99.90;;;;;;7340917;19;109053;-66
2023/10/23 05:26:37;;;;;;;;;;;9.10;99.90;;;;;;7339637;19;109001;-66
2023/10/23 05:29:05;;;;;;;;;;;9.10;99.90;;;;;;7336805;19;111297;-67
2023/10/23 05:31:32;;;;;;;;;;;9.10;99.90;;;;;;7334547;19;109766;-67
2023/10/23 05:33:59;;;;;;;;;;;9.10;99.90;;;;;;7337841;19;108788;-67
2023/10/23 05:36:28;;;;;;;;;;;9.10;99.90;;;;;;7333378;19;108704;-67
2023/10/23 05:38:55;;;;;;;;;;;9.10;99.90;;;;;;7336699;19;111008;-67
2023/10/23 05:41:23;;;;;;;;;;;9.20;99.90;;;;;;7335170;19;109112;-67
2023/10/23 05:43:50;;;;;;;;;;;9.20;99.90;;;;;;7336183;19;109298;-67
2023/10/23 05:46:20;;;;;;;;;;;9.20;99.90;;;;;;7336823;19;109176;-67
2023/10/23 05:48:48;;;;;;;;;;;9.20;99.90;;;;;;7339403;19;108982;-67
2023/10/23 05:51:15;;;;;;;;;;;9.20;99.90;;;;;;7333831;19;110604;-67
2023/10/23 05:53:43;;;;;;;;;;;9.20;99.90;;;;;;7336940;19;109353;-67
2023/10/23 05:56:10;;;;;;;;;;;9.10;99.90;;;;;;7335719;19;108647;-67
2023/10/23 05:58:37;;;;;;;;;;;9.10;99.90;;;;;;7334311;19;109658;-67
2023/10/23 06:01:08;;;;;;;;;;;9.00;99.90;;;;;;7334182;19;108503;-67
2023/10/23 06:03:36;;;;;;;;;;;9.00;99.90;;;;;;7335931;19;110235;-67
2023/10/23 06:06:04;;;;;;;;;;;9.00;99.90;;;;;;7336538;19;109148;-67
2023/10/23 06:08:31;;;;;;;;;;;9.00;99.90;;;;;;7341034;19;109932;-66
2023/10/23 06:10:59;;;;;;;;;;;8.90;99.90;;;;;;7336279;19;109060;-67
2023/10/23 06:13:26;;;;;;;;;;;9.00;99.90;;;;;;7338917;19;108400;-66
2023/10/23 06:15:59;;;;;;;;;;;8.90;99.90;;;;;;7335845;19;109478;-67
2023/10/23 06:18:26;;;;;;;;;;;9.00;99.90;;;;;;7337961;19;111086;-66
2023/10/23 06:21:03;;;;;;;;;;;9.00;99.90;;;;;;7335295;19;108686;-66
2023/10/23 06:23:34;;;;;;;;;;;9.00;99.90;;;;;;7334591;19;109060;-67
2023/10/23 06:26:01;;;;;;;;;;;9.10;99.90;;;;;;7335582;19;109191;-68
2023/10/23 06:28:28;;;;;;;;;;;9.10;99.90;;;;;;7334727;19;110398;-67
2023/10/23 06:30:56;;;;;;;;;;;9.20;99.90;;;;;;7336932;19;109362;-66
2023/10/23 06:33:23;;;;;;;;;;;9.20;99.90;;;;;;7334113;19;109081;-66
2023/10/23 06:35:57;;;;;;;;;;;9.20;99.90;;;;;;7332004;19;109038;-74
2023/10/23 06:38:24;;;;;;;;;;;9.30;99.90;;;;;;7329352;19;110475;-72
2023/10/23 06:40:51;;;;;;;;;;;9.30;99.90;;;;;;7337766;19;109276;-69
2023/10/23 06:43:18;;;;;;;;;;;9.30;99.90;;;;;;7330802;19;108911;-73
2023/10/23 06:45:48;;;;;;;;;;;9.30;99.90;;;;;;7334363;19;109717;-76
2023/10/23 06:48:28;;;;;;;;;;;9.30;99.90;;;;;;7336406;19;111122;-74
2023/10/23 06:50:55;;;;;;;;;;;9.30;99.90;;;;;;7332352;19;110542;-75
2023/10/23 06:53:22;;;;;;;;;;;9.40;99.90;;;;;;7337151;19;109891;-74
2023/10/23 06:55:51;;;;;;;;;;;9.40;99.90;;;;;;7335475;19;108541;-75
2023/10/23 06:58:19;;;;;;;;;;;9.50;99.90;;;;;;7333693;19;110235;-75
2023/10/23 07:00:46;;;;;;;;;;;9.50;99.90;;;;;;7335249;19;109999;-73
2023/10/23 07:03:14;;;;;;;;;;;9.60;99.90;;;;;;7332886;19;109450;-74
2023/10/23 07:05:41;;;;;;;;;;;9.60;99.90;;;;;;7336196;19;110234;-74
2023/10/23 07:08:08;;;;;;;;;;;9.60;99.90;;;;;;7331630;19;108854;-75
2023/10/23 07:10:36;;;;;;;;;;;9.60;99.90;;;;;;7333955;19;110731;-75
2023/10/23 07:13:03;;;;;;;;;;;9.70;99.90;;;;;;7332610;19;110470;-75
2023/10/23 07:15:41;;;;;;;;;;;9.70;99.90;;;;;;7338194;19;109049;-75
2023/10/23 07:18:10;;;;;;;;;;;9.70;99.90;;;;;;7331453;19;110718;-74
2023/10/23 07:20:37;;;;;;;;;;;9.80;99.90;;;;;;7335718;19;109876;-74
2023/10/23 07:23:04;;;;;;;;;;;9.80;99.90;;;;;;7334254;19;109552;-75
2023/10/23 07:25:32;;;;;;;;;;;9.90;99.90;;;;;;7331016;19;109494;-74
2023/10/23 07:27:59;;;;;;;;;;;9.90;99.90;;;;;;7332779;19;111687;-74
2023/10/23 07:30:26;;;;;;;;;;;9.90;99.90;;;;;;7332132;19;111141;-75
2023/10/23 07:32:54;;;;;;;;;;;10.00;99.90;;;;;;7335104;19;110657;-75
2023/10/23 07:35:21;;;;;;;;;;;10.10;99.90;;;;;;7341191;19;109181;-75
2023/10/23 07:37:49;;;;;;;;;;;10.10;99.90;;;;;;7335231;19;110378;-74
2023/10/23 07:40:16;;;;;;;;;;;10.20;99.90;;;;;;7332202;19;109543;-74
2023/10/23 07:42:45;;;;;;;;;;;10.30;99.90;;;;;;7334556;19;109287;-74
2023/10/23 07:45:13;;;;;;;;;;;10.40;99.90;;;;;;7331712;19;109085;-74
2023/10/23 07:47:40;;;;;;;;;;;10.40;99.90;;;;;;7332980;19;108859;-75
2023/10/23 07:50:07;;;;;;;;;;;10.50;99.90;;;;;;7330366;19;109219;-75
2023/10/23 07:52:35;;;;;;;;;;;10.50;99.90;;;;;;7333529;19;112282;-75
2023/10/23 07:55:02;;;;;;;;;;;10.50;99.90;;;;;;7334087;19;110142;-75
2023/10/23 07:57:29;;;;;;;;;;;10.60;99.90;;;;;;7341435;19;109100;-75
2023/10/23 07:59:56;;;;;;;;;;;10.70;99.90;;;;;;7329825;19;108390;-75
2023/10/23 08:02:24;;;;;;;;;;;10.70;99.90;;;;;;7333795;19;108918;-75
2023/10/23 08:04:51;;;;;;;;;;;10.80;99.90;;;;;;7332637;19;110553;-74
2023/10/23 08:07:19;;;;;;;;;;;10.80;99.90;;;;;;7334015;19;110190;-75
2023/10/23 08:09:46;;;;;;;;;;;10.90;99.90;;;;;;7332130;19;110551;-73
2023/10/23 08:12:13;;;;;;;;;;;11.00;99.90;;;;;;7333353;19;108979;-74
2023/10/23 08:14:40;;;;;;;;;;;11.10;99.90;;;;;;7332522;19;108862;-74
2023/10/23 08:17:08;;;;;;;;;;;11.20;99.90;;;;;;7332555;19;110043;-75
2023/10/23 08:19:37;;;;;;;;;;;11.20;99.90;;;;;;7331163;19;110610;-75
2023/10/23 08:22:05;;;;;;;;;;;11.30;99.90;;;;;;7333335;19;109518;-74
2023/10/23 08:24:32;;;;;;;;;;;11.30;99.90;;;;;;7331023;19;110612;-75
2023/10/23 08:26:59;;;;;;;;;;;11.40;99.90;;;;;;7332941;19;108713;-74
2023/10/23 08:29:28;;;;;;;;;;;11.40;99.90;;;;;;7332695;19;111625;-75
2023/10/23 08:31:56;;;;;;;;;;;11.50;99.90;;;;;;7330062;19;111272;-75
2023/10/23 08:34:23;;;;;;;;;;;11.60;99.90;;;;;;7330962;19;109259;-74
2023/10/23 08:36:51;;;;;;;;;;;11.70;99.90;;;;;;7330621;19;109524;-75
2023/10/23 08:39:20;;;;;;;;;;;11.70;99.90;;;;;;7331297;19;110110;-76
2023/10/23 08:41:48;;;;;;;;;;;11.80;99.90;;;;;;7338025;19;109283;-75
2023/10/23 08:44:16;;;;;;;;;;;11.90;99.90;;;;;;7332434;19;109098;-76
2023/10/23 08:46:43;;;;;;;;;;;12.00;99.90;;;;;;7330196;19;109004;-76
2023/10/23 08:49:10;;;;;;;;;;;12.10;99.90;;;;;;7332008;19;110492;-77
2023/10/23 08:51:39;;;;;;;;;;;12.20;99.90;;;;;;7332140;19;109193;-76
2023/10/23 08:54:07;;;;;;;;;;;12.20;99.90;;;;;;7334114;19;109631;-77
2023/10/23 08:56:39;;;;;;;;;;;12.30;99.90;;;;;;7338520;19;109379;-77
2023/10/23 08:59:08;;;;;;;;;;;12.40;99.90;;;;;;7334417;19;109287;-76
2023/10/23 09:01:36;;;;;;;;;;;12.40;99.90;;;;;;7335083;19;108696;-75
2023/10/23 09:04:05;;;;;;;;;;;12.50;99.90;;;;;;7340379;19;108843;-76
2023/10/23 09:06:35;;;;;;;;;;;12.50;99.90;;;;;;7339631;19;108897;-76
2023/10/23 09:09:06;;;;;;;;;;;12.50;99.90;;;;;;7338650;19;108838;-76
2023/10/23 09:11:37;;;;;;;;;;;12.60;99.90;;;;;;7338029;19;109424;-77
2023/10/23 09:14:05;;;;;;;;;;;12.70;99.90;;;;;;7338652;19;109377;-77
2023/10/23 09:16:32;;;;;;;;;;;12.70;99.90;;;;;;7338008;19;110167;-77
2023/10/23 09:18:59;;;;;;;;;;;12.80;99.90;;;;;;7339168;19;110460;-76
2023/10/23 09:21:27;;;;;;;;;;;12.80;99.90;;;;;;7338832;19;108871;-77
2023/10/23 09:23:55;;;;;;;;;;;12.90;99.90;;;;;;7343003;19;109912;-76
2023/10/23 09:26:23;;;;;;;;;;;12.90;99.90;;;;;;7339783;19;108936;-77
2023/10/23 09:28:52;;;;;;;;;;;13.00;99.90;;;;;;7338896;19;109375;-77
2023/10/23 09:31:20;;;;;;;;;;;13.00;99.90;;;;;;7335584;19;110846;-77
2023/10/23 09:33:48;;;;;;;;;;;13.10;99.90;;;;;;7338856;19;108872;-76
2023/10/23 09:36:16;;;;;;;;;;;13.10;99.90;;;;;;7337444;19;109037;-76
2023/10/23 09:38:45;;;;;;;;;;;13.20;99.90;;;;;;7338601;19;109852;-76
2023/10/23 09:41:12;;;;;;;;;;;13.20;99.90;;;;;;7335649;19;109161;-76
2023/10/23 09:43:45;;;;;;;;;;;13.30;99.90;;;;;;7334276;19;109401;-76
2023/10/23 09:46:12;;;;;;;;;;;13.40;99.90;;;;;;7341288;19;110135;-77
2023/10/23 09:48:43;;;;;;;;;;;13.40;99.90;;;;;;7339447;19;109640;-79
2023/10/23 09:51:15;;;;;;;;;;;13.50;99.90;;;;;;7336068;19;110365;-76
2023/10/23 09:53:46;;;;;;;;;;;13.60;99.90;;;;;;7339079;19;109270;-77
2023/10/23 09:56:15;;;;;;;;;;;13.60;99.90;;;;;;7338056;19;110758;-76
2023/10/23 09:58:44;;;;;;;;;;;13.70;99.90;;;;;;7339096;19;110659;-76
2023/10/23 10:01:12;;;;;;;;;;;13.70;99.90;;;;;;7336419;19;109882;-76
2023/10/23 10:03:40;;;;;;;;;;;13.80;99.90;;;;;;7336944;19;108804;-77
2023/10/23 10:06:13;;;;;;;;;;;13.90;99.90;;;;;;7339537;19;110715;-76
2023/10/23 10:08:48;;;;;;;;;;;14.00;99.90;;;;;;7341303;19;109425;-76
2023/10/23 10:11:16;;;;;;;;;;;14.10;99.90;;;;;;7338558;19;110316;-75
2023/10/23 10:13:44;;;;;;;;;;;14.20;99.90;;;;;;7338936;19;108960;-75
2023/10/23 10:16:11;;;;;;;;;;;14.20;99.90;;;;;;7333570;19;109936;-75
2023/10/23 10:18:39;;;;;;;;;;;14.20;99.90;;;;;;7338557;19;109277;-77
2023/10/23 10:21:09;;;;;;;;;;;14.30;99.90;;;;;;7335985;19;108911;-76
2023/10/23 10:23:37;;;;;;;;;;;14.40;99.90;;;;;;7335246;19;109254;-76
2023/10/23 10:26:04;;;;;;;;;;;14.40;99.90;;;;;;7332532;19;109396;-76
2023/10/23 10:28:32;;;;;;;;;;;14.50;99.90;;;;;;7335234;19;108828;-76
2023/10/23 10:30:59;;;;;;;;;;;14.40;99.90;;;;;;7338999;19;108699;-76
2023/10/23 10:33:30;;;;;;;;;;;14.50;99.90;;;;;;7335137;19;108963;-74
2023/10/23 10:36:23;;;;;;;;;;;14.50;99.90;;;;;;7335058;19;111060;-74
2023/10/23 10:39:10;;;;;;;;;;;14.70;99.90;;;;;;7337066;19;111380;-76
2023/10/23 10:41:37;;;;;;;;;;;14.60;99.90;;;;;;7337404;19;109143;-75
2023/10/23 10:44:09;;;;;;;;;;;14.50;99.90;;;;;;7338006;19;110577;-76
2023/10/23 10:46:39;;;;;;;;;;;14.60;99.90;;;;;;7336933;19;111189;-75
2023/10/23 10:49:07;;;;;;;;;;;14.60;99.90;;;;;;7337558;19;108866;-75
2023/10/23 10:51:34;;;;;;;;;;;14.60;99.90;;;;;;7335086;19;108390;-75
2023/10/23 10:54:07;;;;;;;;;;;14.50;99.90;;;;;;7343272;19;111782;-76
2023/10/23 10:56:35;;;;;;;;;;;14.60;99.90;;;;;;7336247;19;109301;-76
2023/10/23 10:59:03;;;;;;;;;;;14.70;99.90;;;;;;7336596;19;111304;-74
2023/10/23 11:01:31;;;;;;;;;;;14.90;99.90;;;;;;7334647;19;108852;-76
2023/10/23 11:03:59;;;;;;;;;;;15.00;99.90;;;;;;7338032;19;110277;-77
2023/10/23 11:06:26;;;;;;;;;;;15.00;99.90;;;;;;7333935;19;110447;-78
2023/10/23 11:08:54;;;;;;;;;;;15.10;99.90;;;;;;7338019;19;109249;-87
2023/10/23 11:11:22;;;;;;;;;;;15.20;99.90;;;;;;7340113;19;109282;-86
2023/10/23 11:13:49;;;;;;;;;;;15.10;99.90;;;;;;7341400;19;110372;-88
2023/10/23 11:16:16;;;;;;;;;;;15.10;99.90;;;;;;7342653;19;110006;-87
2023/10/23 11:18:43;;;;;;;;;;;15.10;99.90;;;;;;7341972;19;112777;-87
2023/10/23 11:21:10;;;;;;;;;;;15.20;99.90;;;;;;7341556;19;108435;-86
2023/10/23 11:23:38;;;;;;;;;;;15.30;99.90;;;;;;7335978;19;110258;-87
2023/10/23 11:26:07;;;;;;;;;;;15.40;99.90;;;;;;7338133;19;112150;-87
2023/10/23 11:28:34;;;;;;;;;;;15.30;99.90;;;;;;7340692;19;108610;-89
2023/10/23 11:31:03;;;;;;;;;;;15.40;99.90;;;;;;7349419;19;111249;-89
2023/10/23 11:33:33;;;;;;;;;;;15.40;99.90;;;;;;7339544;19;110913;-87
2023/10/23 11:36:14;;;;;;;;;;;15.40;99.90;;;;;;7336216;19;110384;-88
2023/10/23 11:38:44;;;;;;;;;;;15.40;99.90;;;;;;7328430;19;110295;-87
2023/10/23 11:41:11;;;;;;;;;;;15.40;99.90;;;;;;7330974;19;109498;-86
2023/10/23 11:43:38;;;;;;;;;;;15.50;99.90;;;;;;7338874;19;109733;-89
2023/10/23 11:46:07;;;;;;;;;;;15.60;99.90;;;;;;7328773;19;113530;-88
2023/10/23 11:48:34;;;;;;;;;;;15.60;99.90;;;;;;7326885;19;111134;-88
2023/10/23 11:51:08;;;;;;;;;;;15.60;99.90;;;;;;7331804;19;109162;-89
2023/10/23 11:53:35;;;;;;;;;;;15.70;99.90;;;;;;7335209;19;111059;-88
2023/10/23 11:56:03;;;;;;;;;;;15.70;99.90;;;;;;7334309;19;109253;-88
2023/10/23 11:58:30;;;;;;;;;;;15.70;99.90;;;;;;7338448;19;109756;-89
2023/10/23 12:00:57;;;;;;;;;;;15.70;99.90;;;;;;7333278;19;108682;-89
2023/10/23 12:03:24;;;;;;;;;;;15.80;99.90;;;;;;7328207;19;110009;-88
2023/10/23 12:05:52;;;;;;;;;;;15.80;99.90;;;;;;7328538;19;110136;-89
2023/10/23 12:08:19;;;;;;;;;;;15.90;99.90;;;;;;7329723;19;108838;-90
2023/10/23 12:10:46;;;;;;;;;;;15.90;99.90;;;;;;7343041;19;111265;-92
2023/10/23 12:13:13;;;;;;;;;;;15.80;99.90;;;;;;7363663;19;108176;-88
2023/10/23 12:15:40;;;;;;;;;;;15.80;99.90;;;;;;7371427;19;108393;-88
2023/10/23 12:18:07;;;;;;;;;;;15.80;99.90;;;;;;7367377;19;109927;-88
2023/10/23 12:20:35;;;;;;;;;;;15.90;99.90;;;;;;7371726;19;112183;-89
2023/10/23 12:23:02;;;;;;;;;;;16.00;99.90;;;;;;7365394;19;110201;-88
2023/10/23 12:25:29;;;;;;;;;;;16.10;99.90;;;;;;7362405;19;109233;-89
2023/10/23 12:27:57;;;;;;;;;;;16.10;99.90;;;;;;7364451;19;108026;-89
2023/10/23 12:30:24;;;;;;;;;;;16.00;99.90;;;;;;7361972;19;108780;-88
2023/10/23 12:32:55;;;;;;;;;;;16.10;99.90;;;;;;7362038;19;111670;-89
2023/10/23 12:35:42;;;;;;;;;;;16.20;99.90;;;;;;7362133;19;109090;-88
2023/10/23 12:38:12;;;;;;;;;;;16.20;99.90;;;;;;7366431;19;108627;-89
2023/10/23 12:40:43;;;;;;;;;;;16.20;99.90;;;;;;7349292;19;112682;-88
2023/10/23 12:43:10;;;;;;;;;;;16.20;99.90;;;;;;7333474;19;109119;-88
2023/10/23 12:45:37;;;;;;;;;;;16.20;99.90;;;;;;7334403;19;109628;-88
2023/10/23 12:48:05;;;;;;;;;;;16.20;99.90;;;;;;7330403;19;109000;-88
2023/10/23 12:50:32;;;;;;;;;;;16.30;99.90;;;;;;7332038;19;108915;-89
2023/10/23 12:53:00;;;;;;;;;;;16.10;99.90;;;;;;7330610;19;109489;-89
2023/10/23 12:55:27;;;;;;;;;;;16.00;99.90;;;;;;7335786;19;108821;-90
2023/10/23 12:57:54;;;;;;;;;;;16.20;99.90;;;;;;7333209;19;108947;-93
2023/10/23 13:00:21;;;;;;;;;;;16.20;99.90;;;;;;7329862;19;111861;-92
2023/10/23 13:02:48;;;;;;;;;;;16.10;99.90;;;;;;7332306;19;108364;-89
2023/10/23 13:05:18;;;;;;;;;;;16.10;99.90;;;;;;7334547;19;109801;-90
2023/10/23 13:07:45;;;;;;;;;;;16.10;99.90;;;;;;7330605;19;109441;-90
2023/10/23 13:10:12;;;;;;;;;;;16.10;99.90;;;;;;7331103;19;110204;-89
2023/10/23 13:12:39;;;;;;;;;;;16.20;99.90;;;;;;7327364;19;108696;-89
2023/10/23 13:15:07;;;;;;;;;;;16.10;99.90;;;;;;7331556;19;108855;-89
2023/10/23 13:17:34;;;;;;;;;;;16.00;99.90;;;;;;7331519;19;109159;-90
2023/10/23 13:20:06;;;;;;;;;;;15.90;99.90;;;;;;7331360;19;110822;-89
2023/10/23 13:22:53;;;;;;;;;;;15.90;99.90;;;;;;7334011;19;110109;-89
2023/10/23 13:25:20;;;;;;;;;;;16.00;99.90;;;;;;7329666;19;109371;-89
2023/10/23 13:27:47;;;;;;;;;;;16.00;99.90;;;;;;7334060;19;110228;-89
2023/10/23 13:30:15;;;;;;;;;;;16.10;99.90;;;;;;7330343;19;110243;-89
2023/10/23 13:32:42;;;;;;;;;;;16.00;99.90;;;;;;7328871;19;110978;-90
2023/10/23 13:35:09;;;;;;;;;;;16.10;99.90;;;;;;7327588;19;109606;-89
2023/10/23 13:37:36;;;;;;;;;;;15.90;99.90;;;;;;7325304;19;112269;-89
2023/10/23 13:40:07;;;;;;;;;;;15.70;99.90;;;;;;7329685;19;110311;-89
2023/10/23 13:42:35;;;;;;;;;;;15.60;99.90;;;;;;7331218;19;111644;-90
2023/10/23 13:45:02;;;;;;;;;;;15.60;99.90;;;;;;7333416;19;109785;-89
2023/10/23 13:47:30;;;;;;;;;;;15.60;99.90;;;;;;7341656;19;110598;-89
2023/10/23 13:49:58;;;;;;;;;;;15.70;99.90;;;;;;7335130;19;109674;-89
2023/10/23 13:52:25;;;;;;;;;;;15.60;99.90;;;;;;7333481;19;110131;-89
2023/10/23 13:54:54;;;;;;;;;;;15.60;99.90;;;;;;7335809;19;109707;-90
2023/10/23 13:57:21;;;;;;;;;;;15.50;99.90;;;;;;7337569;19;110672;-90
2023/10/23 13:59:48;;;;;;;;;;;15.50;99.90;;;;;;7332068;19;112141;-89
2023/10/23 14:02:15;;;;;;;;;;;15.40;99.90;;;;;;7335436;19;111970;-89
2023/10/23 14:04:43;;;;;;;;;;;15.30;99.90;;;;;;7335420;19;110723;-89
2023/10/23 14:07:12;;;;;;;;;;;15.20;99.90;;;;;;7333412;19;110921;-89
2023/10/23 14:09:39;;;;;;;;;;;15.00;99.90;;;;;;7336794;19;109106;-89
2023/10/23 14:12:14;;;;;;;;;;;14.90;99.90;;;;;;7334247;19;113255;-89
2023/10/23 14:14:41;;;;;;;;;;;15.00;99.90;;;;;;7332824;19;108815;-88
2023/10/23 14:17:08;;;;;;;;;;;15.00;99.90;;;;;;7335165;19;108994;-89